Time;durP1;ratioP1;P1;durP2;ratioP2;P2;SDS_P1;SDS_P2;PMS_P1;PMS_P2;Temp;Humidity;BMP_temperature;BMP_pressure;BME280_temperature;BME280_humidity;BME280_pressure;Samples;Min_cycle;Max_cycle;Signal;HPM_P1;HPM_P2
2022/12/27 00:02:19;;;;;;;1.83;0.80;;;20.10;44.50;;;;;;6086189;23;20024;-65
2022/12/27 00:04:44;;;;;;;3.70;1.38;;;20.10;44.50;;;;;;6087210;23;20014;-65
2022/12/27 00:07:10;;;;;;;1.63;1.15;;;20.00;44.40;;;;;;6084994;23;20661;-65
2022/12/27 00:09:36;;;;;;;2.03;1.20;;;20.10;44.40;;;;;;6086180;23;20023;-63
2022/12/27 00:12:01;;;;;;;1.77;1.08;;;20.00;44.40;;;;;;6089340;23;20085;-64
2022/12/27 00:14:27;;;;;;;3.65;1.00;;;20.00;44.40;;;;;;6086432;23;20336;-64
2022/12/27 00:16:53;;;;;;;1.65;1.02;;;20.00;44.40;;;;;;6087950;23;20022;-63
2022/12/27 00:19:18;;;;;;;2.00;1.00;;;20.00;44.40;;;;;;6089400;23;20014;-65
2022/12/27 00:21:44;;;;;;;1.73;0.85;;;20.00;44.30;;;;;;6085915;23;20553;-64
2022/12/27 00:24:10;;;;;;;3.05;1.08;;;20.00;44.40;;;;;;6088575;23;20027;-64
2022/12/27 00:26:38;;;;;;;3.03;0.88;;;19.90;44.20;;;;;;6085071;23;20493;-63
2022/12/27 00:29:04;;;;;;;3.92;1.00;;;20.00;44.30;;;;;;6087347;23;20010;-65
2022/12/27 00:31:31;;;;;;;1.05;0.90;;;19.90;44.30;;;;;;6062715;23;20014;-64
2022/12/27 00:34:02;;;;;;;2.58;1.20;;;19.90;44.30;;;;;;6087590;23;20014;-65
2022/12/27 00:36:28;;;;;;;;;;;19.90;44.20;;;;;;6086582;23;20018;-63
2022/12/27 00:38:56;;;;;;;1.33;0.75;;;19.90;44.10;;;;;;6088227;23;19921;-63
2022/12/27 00:41:22;;;;;;;3.53;1.20;;;19.90;44.40;;;;;;6085872;23;20097;-64
2022/12/27 00:43:48;;;;;;;2.35;0.95;;;19.80;44.20;;;;;;6087458;23;20046;-64
2022/12/27 00:46:14;;;;;;;2.05;0.90;;;19.80;44.10;;;;;;6086670;23;20022;-64
2022/12/27 00:48:40;;;;;;;1.88;1.23;;;19.80;44.10;;;;;;6087795;23;20053;-64
2022/12/27 00:51:12;;;;;;;1.98;0.98;;;19.80;44.10;;;;;;6088713;23;20011;-63
2022/12/27 00:53:38;;;;;;;1.70;0.65;;;19.80;44.00;;;;;;6085632;23;20014;-64
2022/12/27 00:56:10;;;;;;;3.03;0.90;;;19.80;44.00;;;;;;6085940;23;20025;-64
2022/12/27 00:58:36;;;;;;;2.70;0.98;;;19.80;44.00;;;;;;6086704;23;20014;-64
2022/12/27 01:01:17;;;;;;;2.17;1.13;;;19.80;44.00;;;;;;6061383;23;20021;-64
2022/12/27 01:03:43;;;;;;;0.93;0.60;;;19.80;43.90;;;;;;6089191;23;20057;-62
2022/12/27 01:06:12;;;;;;;2.30;1.08;;;19.80;44.00;;;;;;6086618;23;20125;-64
2022/12/27 01:08:38;;;;;;;1.55;0.70;;;19.80;44.00;;;;;;6085816;23;20023;-64
2022/12/27 01:11:04;;;;;;;1.25;0.93;;;19.80;43.90;;;;;;6086868;23;20010;-63
2022/12/27 01:13:31;;;;;;;2.22;0.85;;;19.80;43.90;;;;;;6086149;23;20269;-64
2022/12/27 01:15:56;;;;;;;2.53;1.20;;;19.70;43.90;;;;;;6087581;23;20022;-63
2022/12/27 01:18:22;;;;;;;2.83;1.00;;;19.70;43.80;;;;;;6085758;23;20018;-63
2022/12/27 01:20:48;;;;;;;2.65;1.10;;;19.70;43.80;;;;;;6086735;23;20026;-64
2022/12/27 01:23:13;;;;;;;2.25;0.95;;;19.70;43.80;;;;;;6086862;23;20014;-63
2022/12/27 01:25:39;;;;;;;2.03;0.90;;;19.70;43.80;;;;;;6088856;23;20451;-64
2022/12/27 01:28:05;;;;;;;1.52;0.90;;;19.70;43.90;;;;;;6086052;23;20138;-64
2022/12/27 01:30:31;;;;;;;1.02;0.90;;;19.70;43.90;;;;;;6087128;23;20015;-62
2022/12/27 01:32:56;;;;;;;2.25;1.17;;;19.70;43.80;;;;;;6087101;23;20069;-64
2022/12/27 01:35:22;;;;;;;1.70;0.70;;;19.70;43.90;;;;;;6088043;23;20049;-64
2022/12/27 01:37:48;;;;;;;2.28;0.90;;;19.70;43.90;;;;;;6085112;23;20487;-63
2022/12/27 01:40:14;;;;;;;1.73;0.80;;;19.70;43.90;;;;;;6086400;23;20029;-63
2022/12/27 01:42:52;;;;;;;2.08;0.82;;;19.60;43.80;;;;;;6087287;23;20662;-63
2022/12/27 01:45:20;;;;;;;1.48;0.80;;;19.60;43.70;;;;;;6086497;23;20062;-63
2022/12/27 01:47:58;;;;;;;1.58;0.80;;;19.70;43.90;;;;;;6087103;23;20050;-64
2022/12/27 01:50:38;;;;;;;1.27;0.80;;;19.60;43.80;;;;;;6086146;23;20022;-64
2022/12/27 01:53:11;;;;;;;2.05;0.85;;;19.60;43.80;;;;;;6085859;23;20394;-64
2022/12/27 01:55:51;;;;;;;2.35;0.82;;;19.60;43.80;;;;;;6088177;23;20014;-63
2022/12/27 01:58:43;;;;;;;2.60;0.80;;;19.60;43.80;;;;;;6087111;23;20101;-64
2022/12/27 02:01:14;;;;;;;1.27;1.00;;;19.60;43.70;;;;;;6085435;23;20266;-63
2022/12/27 02:03:49;;;;;;;1.55;0.90;;;19.50;43.80;;;;;;6087959;23;20478;-64
2022/12/27 02:06:16;;;;;;;1.58;0.80;;;19.60;43.80;;;;;;6086054;23;20434;-65
2022/12/27 02:08:57;;;;;;;1.17;0.85;;;19.50;43.80;;;;;;6085754;23;20029;-63
2022/12/27 02:14:13;;;;;;;1.73;0.77;;;19.50;43.80;;;;;;6087469;23;20109;-63
2022/12/27 02:16:38;;;;;;;2.10;1.08;;;19.50;43.80;;;;;;6087617;23;20458;-64
2022/12/27 02:19:27;;;;;;;2.28;1.05;;;19.50;43.80;;;;;;6086043;23;20014;-63
2022/12/27 02:22:25;;;;;;;2.20;1.10;;;19.50;43.80;;;;;;6084855;23;20101;-64
2022/12/27 02:25:18;;;;;;;3.00;1.10;;;19.50;43.60;;;;;;6038617;23;20801;-65
2022/12/27 02:28:28;;;;;;;2.25;1.10;;;19.50;43.70;;;;;;6085712;23;20022;-64
2022/12/27 02:31:02;;;;;;;0.88;0.68;;;19.40;43.70;;;;;;6086872;23;20046;-63
2022/12/27 02:33:35;;;;;;;1.80;0.90;;;19.50;43.80;;;;;;6086102;23;20470;-64
2022/12/27 02:36:05;;;;;;;2.25;1.10;;;19.40;43.80;;;;;;6087446;23;20018;-64
2022/12/27 02:38:39;;;;;;;1.55;0.93;;;19.40;43.80;;;;;;6061450;23;20026;-64
2022/12/27 02:55:38;;;;;;;2.35;1.00;;;19.40;43.70;;;;;;6087443;23;20109;-64
2022/12/27 02:58:32;;;;;;;1.88;0.80;;;19.40;43.60;;;;;;6085240;23;20451;-62
2022/12/27 03:04:19;;;;;;;1.90;1.00;;;19.40;43.60;;;;;;6086952;23;20093;-63
2022/12/27 03:07:30;;;;;;;1.48;0.80;;;19.40;43.70;;;;;;6060644;23;20010;-64
2022/12/27 03:16:17;;;;;;;1.90;0.82;;;19.30;43.60;;;;;;6082802;23;20050;-63
2022/12/27 03:19:03;;;;;;;1.92;1.10;;;19.30;43.70;;;;;;6086250;23;20018;-62
2022/12/27 03:27:27;;;;;;;1.08;0.80;;;19.30;43.70;;;;;;6086997;23;20097;-64
2022/12/27 03:35:42;;;;;;;1.92;0.82;;;19.20;43.60;;;;;;6086032;23;20030;-64
2022/12/27 03:38:12;;;;;;;1.60;0.85;;;19.30;43.70;;;;;;6062273;23;20029;-64
2022/12/27 03:43:44;;;;;;;1.58;0.70;;;19.30;43.50;;;;;;6085823;23;20023;-65
2022/12/27 03:46:35;;;;;;;2.03;1.10;;;19.20;43.60;;;;;;6085960;23;20037;-64
2022/12/27 03:49:29;;;;;;;3.60;1.15;;;19.20;43.50;;;;;;6085881;23;20058;-62
2022/12/27 03:52:18;;;;;;;2.58;0.90;;;19.20;43.50;;;;;;6086113;23;20093;-63
2022/12/27 03:54:48;;;;;;;1.55;0.80;;;19.20;43.50;;;;;;6086723;23;20026;-64
2022/12/27 03:57:17;;;;;;;2.77;0.90;;;19.20;43.60;;;;;;6085660;23;20011;-64
2022/12/27 03:59:43;;;;;;;1.45;0.73;;;19.20;43.60;;;;;;6087068;23;20073;-62
2022/12/27 04:02:08;;;;;;;1.35;0.90;;;19.20;43.60;;;;;;6087730;23;20808;-63
2022/12/27 04:04:35;;;;;;;1.23;0.77;;;19.20;43.60;;;;;;6088773;23;20089;-63
2022/12/27 04:07:01;;;;;;;1.88;0.95;;;19.20;43.60;;;;;;6089441;23;20029;-63
2022/12/27 04:36:51;;;;;;;2.83;1.05;;;19.10;43.60;;;;;;6088175;23;20040;-64
2022/12/27 04:39:17;;;;;;;1.52;0.93;;;19.10;43.60;;;;;;6085983;23;20399;-64
2022/12/27 04:55:29;;;;;;;2.10;1.00;;;19.10;43.60;;;;;;6088399;23;20015;-63
2022/12/27 04:57:56;;;;;;;2.22;0.98;;;19.00;43.60;;;;;;6088286;23;20038;-63
2022/12/27 05:03:12;;;;;;;3.13;1.02;;;19.00;43.60;;;;;;6086808;23;20022;-63
2022/12/27 05:05:39;;;;;;;3.58;0.95;;;19.00;43.60;;;;;;6085559;23;20019;-64
2022/12/27 05:16:18;;;;;;;1.83;0.98;;;19.00;43.60;;;;;;6087277;23;20022;-63
2022/12/27 05:18:44;;;;;;;1.92;0.98;;;19.00;43.70;;;;;;6088412;23;20522;-64
2022/12/27 05:21:10;;;;;;;1.67;0.80;;;19.00;43.70;;;;;;6086054;23;20383;-64
2022/12/27 05:26:22;;;;;;;2.25;0.90;;;19.00;43.70;;;;;;6085637;23;20026;-61
2022/12/27 05:28:50;;;;;;;2.05;0.80;;;19.00;43.70;;;;;;6086293;23;20018;-63
2022/12/27 05:31:15;;;;;;;2.63;0.70;;;19.00;43.80;;;;;;6086408;23;20324;-64
2022/12/27 05:33:41;;;;;;;2.97;0.88;;;19.00;43.70;;;;;;6087044;23;20018;-63
2022/12/27 05:36:08;;;;;;;2.22;0.90;;;19.00;43.70;;;;;;6087008;23;20045;-64
2022/12/27 05:38:33;;;;;;;2.65;0.95;;;19.00;43.80;;;;;;6088852;23;20028;-63
2022/12/27 05:41:00;;;;;;;2.40;1.00;;;19.00;43.80;;;;;;6087669;23;20456;-64
2022/12/27 05:43:27;;;;;;;1.85;0.75;;;19.00;43.70;;;;;;6088317;23;20062;-63
2022/12/27 05:45:53;;;;;;;1.95;0.80;;;19.00;43.70;;;;;;6085795;23;20502;-63
2022/12/27 05:48:19;;;;;;;2.50;0.95;;;19.00;44.50;;;;;;6062270;23;20025;-64
2022/12/27 05:50:45;;;;;;;1.98;1.10;;;19.00;43.80;;;;;;6088608;23;20038;-64
2022/12/27 05:53:11;;;;;;;1.77;0.70;;;18.90;43.70;;;;;;6088941;23;20624;-64
2022/12/27 05:55:36;;;;;;;2.15;0.90;;;19.00;43.80;;;;;;6088931;23;20010;-64
2022/12/27 05:58:02;;;;;;;1.63;0.82;;;18.90;43.70;;;;;;6087742;23;20089;-64
2022/12/27 06:00:28;;;;;;;1.77;0.80;;;19.00;43.80;;;;;;6088293;23;20018;-64
2022/12/27 06:02:53;;;;;;;2.05;1.20;;;18.90;43.70;;;;;;6087491;23;20010;-64
2022/12/27 06:05:19;;;;;;;2.03;0.90;;;18.90;43.60;;;;;;6088923;23;20442;-64
2022/12/27 06:07:45;;;;;;;1.80;0.82;;;18.90;43.70;;;;;;6087810;23;20014;-64
2022/12/27 06:10:10;;;;;;;1.38;0.82;;;18.90;43.70;;;;;;6088437;23;20022;-63
2022/12/27 06:12:36;;;;;;;1.38;0.85;;;18.90;43.70;;;;;;6062248;23;20113;-63
2022/12/27 06:15:04;;;;;;;2.17;0.95;;;18.90;43.70;;;;;;6087016;23;20095;-64
2022/12/27 06:17:30;;;;;;;1.10;0.90;;;18.90;43.70;;;;;;6061989;23;20085;-63
2022/12/27 06:19:55;;;;;;;3.08;1.02;;;18.90;43.70;;;;;;6063182;23;20025;-63
2022/12/27 06:22:21;;;;;;;1.95;0.90;;;18.90;43.70;;;;;;6087923;23;20503;-63
2022/12/27 06:24:47;;;;;;;3.35;1.17;;;18.90;43.80;;;;;;6088394;23;20066;-64
2022/12/27 06:27:12;;;;;;;1.88;0.70;;;18.80;43.70;;;;;;6086991;23;20466;-63
2022/12/27 06:29:38;;;;;;;3.08;0.90;;;18.90;43.80;;;;;;6085910;23;20041;-65
2022/12/27 06:32:03;;;;;;;2.35;1.13;;;18.90;43.80;;;;;;6086366;23;20021;-64
2022/12/27 06:34:29;;;;;;;1.83;0.50;;;18.90;43.80;;;;;;6087914;23;20033;-64
2022/12/27 06:36:55;;;;;;;1.75;0.80;;;18.90;43.80;;;;;;6085361;23;20073;-63
2022/12/27 06:39:20;;;;;;;2.83;1.13;;;18.80;43.80;;;;;;6086372;23;20026;-64
2022/12/27 06:41:46;;;;;;;3.10;0.90;;;18.80;43.70;;;;;;6062506;23;20125;-63
2022/12/27 06:44:12;;;;;;;1.35;0.75;;;18.80;43.70;;;;;;6088745;23;20018;-62
2022/12/27 06:46:38;;;;;;;1.40;0.70;;;18.90;43.80;;;;;;6087819;23;20470;-64
2022/12/27 06:49:03;;;;;;;1.25;0.90;;;18.90;43.80;;;;;;6086469;23;20934;-64
2022/12/27 06:51:29;;;;;;;1.65;0.70;;;18.80;43.70;;;;;;6087200;23;20014;-61
2022/12/27 06:53:55;;;;;;;1.52;0.80;;;18.80;43.70;;;;;;6085668;23;20337;-63
2022/12/27 06:56:22;;;;;;;1.20;0.73;;;18.80;43.70;;;;;;6087497;23;20026;-63
2022/12/27 06:58:49;;;;;;;2.85;0.73;;;18.80;43.70;;;;;;6087217;23;20041;-63
2022/12/27 07:01:21;;;;;;;1.83;1.00;;;18.80;43.70;;;;;;6086326;23;20025;-63
2022/12/27 07:03:51;;;;;;;1.70;0.90;;;18.80;43.70;;;;;;6085498;23;20620;-64
2022/12/27 07:06:17;;;;;;;2.20;1.10;;;18.80;43.70;;;;;;6085637;23;20018;-64
2022/12/27 07:08:43;;;;;;;2.65;1.00;;;18.80;43.70;;;;;;6085677;23;20023;-63
2022/12/27 07:11:11;;;;;;;1.85;0.90;;;18.80;43.70;;;;;;6087041;23;20014;-64
2022/12/27 07:13:42;;;;;;;2.85;1.08;;;18.80;43.70;;;;;;6087572;23;20015;-63
2022/12/27 07:16:11;;;;;;;1.45;0.90;;;18.80;43.70;;;;;;6085904;23;20026;-63
2022/12/27 07:18:37;;;;;;;1.63;0.75;;;18.80;43.60;;;;;;6084366;23;20061;-63
2022/12/27 07:21:05;;;;;;;2.08;0.70;;;18.80;43.70;;;;;;6061681;23;20026;-63
2022/12/27 07:23:31;;;;;;;1.92;0.90;;;18.80;43.80;;;;;;6086711;23;20023;-63
2022/12/27 07:26:08;;;;;;;2.30;1.10;;;18.70;43.70;;;;;;6087435;23;20018;-64
2022/12/27 07:28:34;;;;;;;1.70;0.75;;;18.70;43.60;;;;;;6085839;23;20430;-63
2022/12/27 07:31:08;;;;;;;1.48;0.60;;;18.70;43.70;;;;;;6085225;23;20022;-64
2022/12/27 07:33:37;;;;;;;2.92;1.15;;;18.70;43.70;;;;;;6087409;23;20015;-63
2022/12/27 07:36:04;;;;;;;1.70;0.77;;;18.70;43.70;;;;;;6086175;23;20113;-64
2022/12/27 07:38:30;;;;;;;2.88;1.10;;;18.70;43.80;;;;;;6086901;23;20364;-63
2022/12/27 07:41:00;;;;;;;2.42;0.90;;;18.70;43.70;;;;;;6086964;23;20443;-63
2022/12/27 07:43:33;;;;;;;2.72;0.90;;;18.70;43.70;;;;;;6087295;23;20070;-63
2022/12/27 07:46:07;;;;;;;1.23;0.70;;;18.70;43.70;;;;;;6087073;23;20411;-63
2022/12/27 07:48:33;;;;;;;3.05;0.95;;;18.70;43.80;;;;;;6084745;23;20015;-64
2022/12/27 07:50:58;;;;;;;2.55;0.90;;;18.70;43.80;;;;;;6086775;23;20010;-63
2022/12/27 07:53:24;;;;;;;1.20;0.80;;;18.70;43.80;;;;;;6085277;23;20018;-63
2022/12/27 07:55:50;;;;;;;1.40;0.75;;;18.70;43.80;;;;;;6087641;23;20414;-63
2022/12/27 07:58:16;;;;;;;1.55;0.82;;;18.70;43.80;;;;;;6085870;23;20331;-64
2022/12/27 08:00:48;;;;;;;2.10;0.82;;;18.70;43.80;;;;;;6085416;23;20024;-63
2022/12/27 08:03:14;;;;;;;2.08;1.20;;;18.70;43.80;;;;;;6087033;23;20021;-63
2022/12/27 08:05:53;;;;;;;1.60;1.08;;;18.60;43.80;;;;;;6087008;23;20474;-63
2022/12/27 08:08:21;;;;;;;1.77;0.77;;;18.70;43.90;;;;;;6084828;23;20398;-63
2022/12/27 08:10:47;;;;;;;1.55;0.85;;;18.60;43.80;;;;;;6085559;23;20022;-64
2022/12/27 08:13:13;;;;;;;3.97;0.85;;;18.70;43.90;;;;;;6086437;23;20021;-63
2022/12/27 08:15:41;;;;;;;1.98;1.10;;;18.70;43.90;;;;;;6084666;23;20337;-63
2022/12/27 08:18:07;;;;;;;1.85;0.80;;;18.60;43.80;;;;;;6086060;23;20018;-63
2022/12/27 08:20:33;;;;;;;1.40;0.75;;;18.60;43.90;;;;;;6086447;23;20029;-63
2022/12/27 08:22:58;;;;;;;1.63;0.90;;;18.60;43.90;;;;;;6085603;23;20467;-64
2022/12/27 08:25:24;;;;;;;1.75;0.88;;;18.60;43.90;;;;;;6085529;23;20018;-64
2022/12/27 08:27:50;;;;;;;1.50;0.80;;;18.60;43.80;;;;;;6086793;23;20723;-64
2022/12/27 08:30:15;;;;;;;1.58;0.90;;;18.60;43.90;;;;;;6086164;23;20090;-64
2022/12/27 08:32:42;;;;;;;1.80;0.93;;;18.60;43.90;;;;;;6085605;23;20413;-63
2022/12/27 08:35:08;;;;;;;1.30;0.85;;;18.60;43.90;;;;;;6087597;23;20057;-62
2022/12/27 08:37:33;;;;;;;5.15;0.90;;;18.60;44.00;;;;;;6087699;23;20157;-62
2022/12/27 08:39:59;;;;;;;7.80;1.30;;;18.70;44.20;;;;;;6089814;23;20804;-63
2022/12/27 08:42:25;;;;;;;7.70;1.17;;;19.00;44.00;;;;;;6088636;23;20157;-63
2022/12/27 08:44:50;;;;;;;7.07;1.33;;;19.60;43.20;;;;;;6085879;23;20022;-64
2022/12/27 08:47:18;;;;;;;9.98;1.10;;;20.30;42.30;;;;;;6081279;23;20019;-63
2022/12/27 08:49:44;;;;;;;5.75;1.08;;;20.90;41.40;;;;;;6088102;23;20280;-63
2022/12/27 08:52:09;;;;;;;3.53;1.25;;;21.30;40.70;;;;;;6086184;23;20014;-62
2022/12/27 08:54:35;;;;;;;6.05;1.25;;;21.50;40.50;;;;;;6087085;23;20025;-63
2022/12/27 08:57:01;;;;;;;4.95;1.20;;;21.70;40.40;;;;;;6087443;23;20093;-63
2022/12/27 08:59:27;;;;;;;3.63;0.90;;;21.80;40.00;;;;;;6087413;23;20022;-62
2022/12/27 09:01:52;;;;;;;6.57;1.10;;;22.00;39.90;;;;;;6085920;23;20014;-63
2022/12/27 09:04:18;;;;;;;3.80;1.00;;;22.10;39.80;;;;;;6087448;23;20014;-63
2022/12/27 09:06:44;;;;;;;6.13;0.82;;;22.20;39.70;;;;;;6086655;23;20101;-63
2022/12/27 09:09:09;;;;;;;4.78;0.90;;;22.30;39.60;;;;;;6086762;23;20048;-64
2022/12/27 09:11:35;;;;;;;4.55;0.93;;;22.40;39.70;;;;;;6086300;23;20024;-64
2022/12/27 09:14:03;;;;;;;3.95;0.98;;;22.30;39.80;;;;;;6086038;23;20022;-64
2022/12/27 09:16:29;;;;;;;7.20;1.08;;;22.30;40.00;;;;;;6086304;23;20025;-64
2022/12/27 09:18:57;;;;;;;8.43;1.65;;;22.30;40.20;;;;;;6063448;23;20061;-64
2022/12/27 09:21:25;;;;;;;7.30;1.23;;;22.20;40.20;;;;;;6088881;23;20025;-63
2022/12/27 09:23:51;;;;;;;2.50;0.80;;;22.30;40.40;;;;;;6086650;23;20025;-64
2022/12/27 09:26:19;;;;;;;1.75;1.00;;;22.30;40.60;;;;;;6083945;23;20018;-61
2022/12/27 09:28:45;;;;;;;4.00;1.02;;;22.30;40.60;;;;;;6088350;23;20019;-63
2022/12/27 09:31:12;;;;;;;6.93;1.08;;;22.30;40.70;;;;;;6087716;23;20121;-62
2022/12/27 09:33:38;;;;;;;4.30;1.00;;;22.30;40.70;;;;;;6086946;23;20069;-64
2022/12/27 09:36:16;;;;;;;3.17;0.82;;;22.30;40.80;;;;;;6083187;23;20018;-64
2022/12/27 09:38:42;;;;;;;3.00;0.80;;;22.30;40.80;;;;;;6085952;23;20022;-63
2022/12/27 09:41:20;;;;;;;5.70;1.00;;;22.30;40.80;;;;;;6087575;23;20026;-65
2022/12/27 09:43:59;;;;;;;4.25;1.17;;;22.30;40.90;;;;;;6088315;23;20073;-64
2022/12/27 09:46:32;;;;;;;2.00;0.90;;;22.30;40.90;;;;;;6087414;23;20018;-64
2022/12/27 09:48:58;;;;;;;2.90;1.05;;;22.30;41.00;;;;;;6086444;23;20184;-64
2022/12/27 09:51:31;;;;;;;1.98;0.95;;;22.30;41.00;;;;;;6083138;23;20018;-64
2022/12/27 09:54:04;;;;;;;3.42;1.25;;;22.30;41.00;;;;;;6085867;23;20105;-65
2022/12/27 09:56:33;;;;;;;2.97;1.10;;;22.30;41.00;;;;;;6086440;23;20025;-64
2022/12/27 09:59:20;;;;;;;3.28;0.90;;;22.40;41.00;;;;;;6087877;23;20082;-64
2022/12/27 10:01:47;;;;;;;2.10;0.98;;;22.40;40.90;;;;;;6087567;23;20018;-64
2022/12/27 10:04:16;;;;;;;3.20;1.30;;;22.40;41.00;;;;;;6084872;23;20085;-64
2022/12/27 10:06:50;;;;;;;3.35;1.15;;;22.30;40.90;;;;;;6085419;23;20038;-64
2022/12/27 10:09:44;;;;;;;3.85;1.05;;;22.30;40.90;;;;;;6087697;23;20023;-64
2022/12/27 10:12:25;;;;;;;1.55;0.90;;;22.30;41.00;;;;;;6055084;23;20014;-64
2022/12/27 10:15:18;;;;;;;2.90;1.13;;;22.40;41.20;;;;;;6087593;23;20021;-65
2022/12/27 10:17:59;;;;;;;2.58;1.17;;;22.40;41.40;;;;;;6085978;23;20015;-64
2022/12/27 10:20:46;;;;;;;1.20;0.70;;;22.40;41.40;;;;;;6087235;23;20018;-63
2022/12/27 10:23:18;;;;;;;3.95;1.00;;;22.40;41.50;;;;;;6085498;23;20022;-63
2022/12/27 10:25:45;;;;;;;2.47;1.17;;;22.40;41.50;;;;;;6086828;23;20010;-64
2022/12/27 10:28:24;;;;;;;2.75;0.80;;;22.40;41.60;;;;;;6086339;23;20109;-63
2022/12/27 10:30:51;;;;;;;2.33;1.10;;;22.50;41.70;;;;;;6084602;23;20019;-64
2022/12/27 10:33:23;;;;;;;3.72;1.40;;;22.50;41.80;;;;;;6085612;23;20452;-68
2022/12/27 10:35:48;;;;;;;3.30;1.35;;;22.50;41.80;;;;;;6086149;23;20812;-64
2022/12/27 10:38:14;;;;;;;3.38;1.20;;;22.50;41.70;;;;;;6082960;23;20090;-65
2022/12/27 10:41:02;;;;;;;4.32;0.90;;;22.50;41.70;;;;;;6084475;23;20018;-64
2022/12/27 10:43:38;;;;;;;4.10;1.20;;;22.50;41.70;;;;;;6086421;23;20018;-64
2022/12/27 10:46:31;;;;;;;2.65;1.10;;;22.50;41.70;;;;;;6060193;23;20018;-64
2022/12/27 10:49:05;;;;;;;2.45;1.00;;;22.50;41.50;;;;;;6079954;23;20032;-62
2022/12/27 10:51:39;;;;;;;3.50;1.00;;;22.50;41.60;;;;;;6086316;23;20011;-60
2022/12/27 10:54:19;;;;;;;3.47;1.35;;;22.50;41.60;;;;;;6085269;23;20014;-65
2022/12/27 10:56:46;;;;;;;3.53;1.15;;;22.50;41.60;;;;;;6084579;23;20021;-63
2022/12/27 10:59:28;;;;;;;1.77;1.02;;;22.50;41.60;;;;;;6085459;23;20447;-64
2022/12/27 11:02:02;;;;;;;2.83;1.00;;;22.50;41.60;;;;;;6086701;23;20074;-64
2022/12/27 11:04:29;;;;;;;4.65;1.20;;;22.50;41.60;;;;;;6083055;23;20022;-62
2022/12/27 11:07:01;;;;;;;2.60;0.90;;;22.50;41.70;;;;;;6082105;23;20178;-63
2022/12/27 11:09:30;;;;;;;3.38;1.25;;;22.50;41.70;;;;;;6086528;23;20049;-63
2022/12/27 11:12:23;;;;;;;3.78;1.00;;;22.60;41.70;;;;;;6060604;23;20022;-64
2022/12/27 11:15:03;;;;;;;3.20;1.20;;;22.60;41.80;;;;;;6081790;23;20363;-63
2022/12/27 11:17:37;;;;;;;3.55;1.10;;;22.60;42.60;;;;;;6060070;23;20018;-63
2022/12/27 11:20:37;;;;;;;4.13;1.33;;;22.60;41.90;;;;;;6060112;23;20057;-63
2022/12/27 11:23:15;;;;;;;4.50;1.15;;;22.50;42.00;;;;;;6083760;23;20069;-62
2022/12/27 11:25:54;;;;;;;3.42;1.38;;;22.60;42.20;;;;;;6086496;23;20324;-62
2022/12/27 11:28:40;;;;;;;5.50;1.20;;;22.60;43.00;;;;;;6084788;23;20029;-62
2022/12/27 11:31:12;;;;;;;2.60;0.93;;;22.70;42.30;;;;;;6060643;23;20444;-62
2022/12/27 11:33:44;;;;;;;3.85;0.93;;;22.70;42.30;;;;;;6086496;23;20773;-62
2022/12/27 11:36:14;;;;;;;4.63;1.20;;;22.70;42.30;;;;;;6084760;23;20372;-62
2022/12/27 11:38:43;;;;;;;2.00;0.80;;;22.70;42.40;;;;;;6086277;23;20023;-63
2022/12/27 11:41:28;;;;;;;3.00;0.82;;;22.70;42.40;;;;;;6086965;23;20026;-64
2022/12/27 11:44:14;;;;;;;3.10;1.23;;;22.70;42.60;;;;;;6086252;23;20029;-62
2022/12/27 11:46:55;;;;;;;4.10;1.42;;;22.70;42.50;;;;;;6087409;23;20089;-61
2022/12/27 11:49:26;;;;;;;4.63;1.10;;;22.70;42.50;;;;;;6087813;23;20073;-61
2022/12/27 11:51:58;;;;;;;;;;;22.70;42.50;;;;;;6088129;23;20025;-63
2022/12/27 11:54:32;;;;;;;6.38;1.55;;;22.60;42.50;;;;;;6083464;23;19917;-65
2022/12/27 11:57:24;;;;;;;8.02;1.52;;;22.60;42.70;;;;;;6085265;23;20033;-65
2022/12/27 12:00:13;;;;;;;6.15;1.40;;;22.60;42.50;;;;;;6085719;23;20022;-64
2022/12/27 12:03:00;;;;;;;3.15;1.20;;;22.60;42.50;;;;;;6086544;23;20019;-62
2022/12/27 12:06:05;;;;;;;5.30;1.25;;;22.60;42.50;;;;;;6089122;23;20416;-65
2022/12/27 12:09:03;;;;;;;6.47;1.08;;;22.60;42.50;;;;;;6087278;23;20105;-66
2022/12/27 12:11:42;;;;;;;2.55;1.20;;;22.60;42.40;;;;;;6085388;23;20021;-65
2022/12/27 12:14:45;;;;;;;4.80;1.25;;;22.70;42.30;;;;;;6086855;23;20632;-65
2022/12/27 12:17:29;;;;;;;3.67;1.20;;;22.70;42.10;;;;;;6087471;23;20454;-65
2022/12/27 12:20:04;;;;;;;4.55;1.10;;;22.70;42.10;;;;;;6089843;23;20093;-65
2022/12/27 12:22:35;;;;;;;3.70;1.38;;;22.80;42.20;;;;;;6089114;23;20018;-65
2022/12/27 12:25:19;;;;;;;2.53;1.17;;;22.70;42.10;;;;;;6089657;23;20022;-63
2022/12/27 12:28:08;;;;;;;4.50;1.33;;;22.80;42.10;;;;;;6086130;23;20015;-64
2022/12/27 12:30:43;;;;;;;6.13;1.08;;;22.70;42.00;;;;;;6086865;23;20022;-63
2022/12/27 12:33:38;;;;;;;4.97;1.35;;;22.70;42.10;;;;;;6088308;23;20023;-61
2022/12/27 12:36:22;;;;;;;6.18;1.60;;;22.70;42.20;;;;;;6043389;23;20053;-61
2022/12/27 12:38:58;;;;;;;3.80;1.40;;;22.70;42.30;;;;;;6087534;23;20390;-62
2022/12/27 12:41:44;;;;;;;2.65;1.45;;;22.70;42.30;;;;;;6060857;23;20026;-63
2022/12/27 12:44:19;;;;;;;5.07;1.48;;;22.80;42.30;;;;;;6087456;23;20029;-65
2022/12/27 12:46:51;;;;;;;4.25;1.23;;;22.80;42.30;;;;;;6085299;23;20028;-64
2022/12/27 12:49:54;;;;;;;7.18;1.65;;;22.80;42.30;;;;;;6087088;23;20520;-63
2022/12/27 12:52:36;;;;;;;6.97;2.20;;;22.80;42.40;;;;;;6085661;23;20018;-64
2022/12/27 12:55:20;;;;;;;4.50;1.20;;;22.80;42.40;;;;;;6087089;23;20451;-64
2022/12/27 12:58:11;;;;;;;2.42;1.33;;;22.80;42.40;;;;;;6088197;23;20022;-64
2022/12/27 13:01:07;;;;;;;2.83;1.40;;;22.80;42.20;;;;;;6087188;23;20053;-64
2022/12/27 13:03:51;;;;;;;4.40;1.50;;;22.80;42.40;;;;;;6088254;23;20014;-64
2022/12/27 13:06:38;;;;;;;3.97;1.30;;;22.80;42.40;;;;;;6085967;23;20022;-65
2022/12/27 13:09:29;;;;;;;2.00;1.25;;;22.80;42.50;;;;;;6087055;23;20085;-64
2022/12/27 13:12:09;;;;;;;3.75;1.25;;;22.80;42.50;;;;;;6086944;23;20015;-64
2022/12/27 13:14:54;;;;;;;4.18;1.35;;;22.80;42.70;;;;;;6088777;23;20014;-65
2022/12/27 13:17:53;;;;;;;8.70;1.42;;;22.80;42.70;;;;;;6085586;23;20022;-65
2022/12/27 13:20:43;;;;;;;4.88;1.40;;;22.80;42.80;;;;;;6086815;23;20060;-65
2022/12/27 13:23:46;;;;;;;4.65;1.40;;;22.80;42.70;;;;;;6087548;23;20024;-65
2022/12/27 13:26:16;;;;;;;3.13;1.45;;;22.80;42.80;;;;;;6085991;23;20026;-65
2022/12/27 13:29:30;;;;;;;3.43;1.37;;;22.80;42.80;;;;;;6088837;23;20026;-65
2022/12/27 13:32:20;;;;;;;6.40;1.80;;;22.80;42.80;;;;;;6046111;23;20388;-64
2022/12/27 13:34:52;;;;;;;5.83;1.50;;;22.80;42.90;;;;;;6086454;23;20442;-66
2022/12/27 13:37:27;;;;;;;5.55;1.50;;;22.80;42.90;;;;;;6061981;23;20695;-64
2022/12/27 13:40:16;;;;;;;4.78;1.30;;;22.80;42.80;;;;;;6086757;23;20026;-64
2022/12/27 13:42:54;;;;;;;7.63;1.80;;;22.90;42.80;;;;;;6086943;23;20022;-64
2022/12/27 13:45:30;;;;;;;2.33;1.50;;;22.80;42.70;;;;;;6087102;23;20022;-66
2022/12/27 13:48:17;;;;;;;2.65;1.40;;;22.90;42.90;;;;;;6085236;23;20451;-65
2022/12/27 13:51:06;;;;;;;4.65;1.45;;;22.90;42.80;;;;;;6061965;23;20019;-63
2022/12/27 13:53:44;;;;;;;2.30;1.30;;;22.80;42.70;;;;;;6070288;23;20026;-66
2022/12/27 13:56:40;;;;;;;3.08;1.55;;;22.80;43.00;;;;;;6087094;23;20085;-66
2022/12/27 13:59:23;;;;;;;5.47;1.60;;;22.80;43.50;;;;;;6088237;23;20037;-67
2022/12/27 14:02:19;;;;;;;2.92;1.40;;;22.90;43.90;;;;;;6086407;23;20041;-66
2022/12/27 14:05:00;;;;;;;4.32;1.63;;;22.90;44.10;;;;;;6062546;23;20089;-65
2022/12/27 14:07:38;;;;;;;5.95;1.63;;;22.90;44.30;;;;;;6086115;23;20022;-65
2022/12/27 14:10:13;;;;;;;5.13;1.60;;;22.90;44.40;;;;;;6085843;23;20028;-65
2022/12/27 14:13:02;;;;;;;8.55;1.48;;;22.90;44.50;;;;;;6085602;23;20022;-65
2022/12/27 14:15:56;;;;;;;4.43;1.52;;;23.00;44.60;;;;;;6086617;23;20637;-65
2022/12/27 14:18:35;;;;;;;3.15;1.27;;;23.00;44.60;;;;;;6088163;23;20015;-65
2022/12/27 14:21:37;;;;;;;2.97;1.45;;;23.00;44.60;;;;;;6086283;23;20018;-65
2022/12/27 14:24:40;;;;;;;4.15;1.63;;;23.00;44.60;;;;;;6083989;23;20906;-64
2022/12/27 14:27:31;;;;;;;4.53;1.52;;;23.00;44.50;;;;;;6084664;23;20018;-65
2022/12/27 14:30:21;;;;;;;7.50;1.98;;;22.90;44.60;;;;;;6087003;23;20089;-63
2022/12/27 14:33:21;;;;;;;3.23;1.77;;;22.90;44.70;;;;;;6082511;23;20014;-61
2022/12/27 14:35:55;;;;;;;3.90;2.05;;;22.90;44.70;;;;;;6082362;23;20018;-66
2022/12/27 14:38:50;;;;;;;3.40;1.60;;;23.00;44.60;;;;;;6084692;23;20074;-64
2022/12/27 14:41:52;;;;;;;6.30;1.90;;;23.00;44.60;;;;;;6084657;23;20073;-64
2022/12/27 14:44:56;;;;;;;7.88;1.73;;;22.90;44.60;;;;;;6083894;23;20510;-64
2022/12/27 14:47:55;;;;;;;4.88;1.95;;;23.00;44.60;;;;;;6085553;23;20029;-64
2022/12/27 14:51:08;;;;;;;4.80;1.70;;;23.00;44.60;;;;;;6083160;23;20018;-64
2022/12/27 14:53:40;;;;;;;5.43;1.60;;;23.00;44.60;;;;;;6051571;23;20020;-64
2022/12/27 14:56:12;;;;;;;4.65;2.03;;;22.90;44.70;;;;;;6082846;23;20025;-64
2022/12/27 14:59:01;;;;;;;3.90;1.90;;;23.00;44.70;;;;;;6086272;23;20018;-64
2022/12/27 15:01:39;;;;;;;4.53;1.98;;;23.00;44.70;;;;;;6085031;23;20068;-64